Time;durP1;ratioP1;P1;durP2;ratioP2;P2;SDS_P1;SDS_P2;PMS_P1;PMS_P2;Temp;Humidity;BMP_temperature;BMP_pressure;BME280_temperature;BME280_humidity;BME280_pressure;Samples;Min_cycle;Max_cycle;Signal;HPM_P1;HPM_P2
2023/11/02 00:00:35;;;;;;;6.90;6.20;;;;;;;6.65;100.00;94544.78;5081021;28;20036;-63
2023/11/02 00:03:05;;;;;;;8.15;7.00;;;;;;;6.68;100.00;94522.75;5081257;28;20078;-62
2023/11/02 00:05:55;;;;;;;7.68;5.78;;;;;;;6.76;100.00;94515.00;5079685;28;20031;-62
2023/11/02 00:08:21;;;;;;;6.18;5.68;;;;;;;6.65;100.00;94502.09;5078370;28;20675;-62
2023/11/02 00:10:47;;;;;;;6.20;5.60;;;;;;;6.62;100.00;94497.97;5078366;28;20040;-62
2023/11/02 00:13:30;;;;;;;5.28;4.80;;;;;;;6.65;100.00;94475.97;5064606;28;20025;-62
2023/11/02 00:15:56;;;;;;;8.90;8.18;;;;;;;6.61;100.00;94470.19;5084338;28;20032;-62
2023/11/02 00:18:23;;;;;;;10.55;9.48;;;;;;;6.56;100.00;94468.03;5085053;28;20026;-62
2023/11/02 00:20:54;;;;;;;6.75;6.10;;;;;;;6.67;100.00;94469.63;5083025;28;20024;-63
2023/11/02 00:23:39;;;;;;;5.45;5.00;;;;;;;6.70;100.00;94437.94;5080334;28;20028;-63
2023/11/02 00:26:05;;;;;;;5.88;5.30;;;;;;;6.62;100.00;94430.00;5088205;28;20056;-62
2023/11/02 00:28:31;;;;;;;3.80;3.50;;;;;;;6.64;100.00;94428.06;5078307;28;20498;-62
2023/11/02 00:30:58;;;;;;;4.30;3.78;;;;;;;6.65;100.00;94429.72;5074201;28;20047;-62
2023/11/02 00:33:24;;;;;;;4.40;4.10;;;;;;;6.68;100.00;94413.72;5076743;28;20542;-62
2023/11/02 00:35:52;;;;;;;4.45;4.13;;;;;;;6.71;100.00;94416.03;5082473;28;20024;-62
2023/11/02 00:38:27;;;;;;;4.13;3.75;;;;;;;6.72;100.00;94429.91;5076217;28;20020;-62
2023/11/02 00:40:57;;;;;;;15.50;13.38;;;;;;;6.71;100.00;94436.97;5081486;28;20023;-62
2023/11/02 00:43:23;;;;;;;5.95;5.45;;;;;;;6.67;100.00;94437.41;5080009;28;20027;-63
2023/11/02 00:45:49;;;;;;;4.28;3.97;;;;;;;6.65;100.00;94442.78;5081955;28;20032;-62
2023/11/02 00:48:28;;;;;;;4.53;4.13;;;;;;;6.64;100.00;94440.31;5083611;28;20029;-63
2023/11/02 00:51:09;;;;;;;4.15;3.90;;;;;;;6.64;100.00;94416.78;5073569;28;20036;-62
2023/11/02 00:53:39;;;;;;;6.72;5.95;;;;;;;6.56;100.00;94426.19;5079056;28;20020;-63
2023/11/02 00:56:07;;;;;;;8.68;7.97;;;;;;;6.57;100.00;94414.75;5078254;28;20119;-63
2023/11/02 00:58:34;;;;;;;6.18;4.93;;;;;;;6.53;100.00;94410.81;5079945;28;20137;-62
2023/11/02 01:01:07;;;;;;;5.60;5.20;;;;;;;6.68;100.00;94410.28;5087930;28;20108;-62
2023/11/02 01:03:34;;;;;;;5.82;5.35;;;;;;;6.54;100.00;94412.44;5081480;28;20091;-62
2023/11/02 01:06:00;;;;;;;4.93;4.63;;;;;;;6.56;100.00;94397.44;5076683;28;20693;-63
2023/11/02 01:08:30;;;;;;;5.68;5.13;;;;;;;6.53;100.00;94400.34;5081213;28;20573;-62
2023/11/02 01:10:56;;;;;;;6.85;4.78;;;;;;;6.64;100.00;94395.84;5077069;28;20420;-62
2023/11/02 01:13:21;;;;;;;5.20;4.82;;;;;;;6.51;100.00;94375.31;5077567;28;20012;-62
2023/11/02 01:16:20;;;;;;;5.00;4.60;;;;;;;6.56;100.00;94352.13;5084165;28;20051;-63
2023/11/02 01:18:46;;;;;;;6.00;4.68;;;;;;;6.62;100.00;94330.59;5063323;28;20028;-62
2023/11/02 01:21:14;;;;;;;4.85;4.55;;;;;;;6.52;100.00;94322.03;5082312;28;20025;-62
2023/11/02 01:23:41;;;;;;;4.45;4.05;;;;;;;6.56;100.00;94326.81;5080538;28;20026;-62
2023/11/02 01:26:44;;;;;;;5.32;4.93;;;;;;;6.47;100.00;94342.59;5085595;28;20012;-62
2023/11/02 01:29:10;;;;;;;8.82;8.15;;;;;;;6.49;100.00;94338.84;5079231;28;20111;-64
2023/11/02 01:31:36;;;;;;;9.10;8.27;;;;;;;6.56;100.00;94342.50;5087638;28;20060;-62
2023/11/02 01:34:03;;;;;;;6.30;5.00;;;;;;;6.45;100.00;94329.66;5077281;28;20051;-62
2023/11/02 01:36:39;;;;;;;5.13;4.65;;;;;;;6.57;100.00;94307.53;5080283;28;20497;-63
2023/11/02 01:39:30;;;;;;;5.75;5.25;;;;;;;6.54;100.00;94309.63;5084688;28;20032;-62
2023/11/02 01:42:07;;;;;;;6.03;5.43;;;;;;;6.47;100.00;94313.84;5092929;28;20133;-63
2023/11/02 01:44:41;;;;;;;6.72;6.20;;;;;;;6.43;100.00;94300.22;5079638;28;20538;-62
2023/11/02 01:47:12;;;;;;;4.38;4.07;;;;;;;6.47;100.00;94285.88;5083539;28;20021;-62
2023/11/02 01:49:52;;;;;;;5.10;4.07;;;;;;;6.52;100.00;94267.97;5084842;28;20435;-62
2023/11/02 01:52:39;;;;;;;4.70;4.40;;;;;;;6.51;100.00;94261.06;5085121;28;20024;-62
2023/11/02 01:55:26;;;;;;;4.30;4.00;;;;;;;6.54;100.00;94250.31;5091258;28;20520;-62
2023/11/02 01:58:10;;;;;;;6.97;6.38;;;;;;;6.57;100.00;94233.50;5092830;28;20081;-62
2023/11/02 02:00:48;;;;;;;4.88;4.47;;;;;;;6.56;100.00;94240.53;5089460;28;20044;-62
2023/11/02 02:03:26;;;;;;;4.60;4.20;;;;;;;6.69;100.00;94221.81;5085181;28;20493;-62
2023/11/02 02:06:15;;;;;;;3.83;3.50;;;;;;;6.86;100.00;94193.16;5083401;28;20024;-62
2023/11/02 02:09:17;;;;;;;5.05;4.60;;;;;;;6.75;100.00;94202.06;5087881;28;20039;-62
2023/11/02 02:12:03;;;;;;;5.70;3.63;;;;;;;6.93;100.00;94185.47;5077904;28;20034;-63
2023/11/02 02:14:55;;;;;;;4.32;3.97;;;;;;;6.83;100.00;94196.03;5088408;28;20035;-62
2023/11/02 02:17:35;;;;;;;4.57;4.28;;;;;;;6.74;100.00;94189.94;5085723;28;20026;-62
2023/11/02 02:20:23;;;;;;;5.13;4.68;;;;;;;6.68;100.00;94188.78;5083717;28;20517;-62
2023/11/02 02:23:02;;;;;;;6.10;4.60;;;;;;;6.81;100.00;94162.22;5084402;28;20650;-63
2023/11/02 02:25:57;;;;;;;4.82;4.43;;;;;;;6.76;100.00;94174.94;5076352;28;20481;-62
2023/11/02 02:29:07;;;;;;;4.07;3.83;;;;;;;6.91;100.00;94140.31;5081683;28;20064;-63
2023/11/02 02:32:14;;;;;;;4.68;4.22;;;;;;;6.87;100.00;94145.06;5086478;28;20032;-62
2023/11/02 02:34:55;;;;;;;5.53;3.72;;;;;;;6.84;100.00;94135.72;5086617;28;20024;-62
2023/11/02 02:37:26;;;;;;;4.70;4.30;;;;;;;6.93;100.00;94127.91;5078537;28;20082;-63
2023/11/02 02:39:59;;;;;;;7.18;6.55;;;;;;;6.91;100.00;94120.22;5087520;28;20021;-62
2023/11/02 02:42:25;;;;;;;7.60;6.80;;;;;;;6.85;100.00;94126.06;5080481;28;20081;-63
2023/11/02 02:44:51;;;;;;;5.00;4.60;;;;;;;6.85;100.00;94111.22;5082304;28;20013;-63
2023/11/02 02:47:21;;;;;;;3.90;3.60;;;;;;;6.83;100.00;94089.63;5081847;28;20016;-63
2023/11/02 02:49:51;;;;;;;3.13;2.92;;;;;;;6.86;100.00;94086.69;5092800;28;20024;-62
2023/11/02 02:52:21;;;;;;;3.90;3.60;;;;;;;6.84;100.00;94108.75;5081943;28;20030;-63
2023/11/02 02:54:50;;;;;;;3.60;3.40;;;;;;;6.83;100.00;94109.72;5083243;28;20551;-62
2023/11/02 02:57:17;;;;;;;3.10;2.80;;;;;;;6.90;100.00;94107.28;5087653;28;20050;-62
2023/11/02 02:59:48;;;;;;;3.60;3.30;;;;;;;7.03;100.00;94082.31;5078820;28;20065;-63
2023/11/02 03:02:16;;;;;;;3.17;2.95;;;;;;;7.18;100.00;94086.94;5087611;28;20017;-62
2023/11/02 03:04:45;;;;;;;3.47;3.13;;;;;;;7.09;100.00;94065.16;5080142;28;20388;-63
2023/11/02 03:07:18;;;;;;;3.30;3.10;;;;;;;6.97;100.00;94082.16;5080946;28;20016;-62
2023/11/02 03:09:47;;;;;;;3.30;3.00;;;;;;;6.93;100.00;94081.66;5086922;28;20051;-62
2023/11/02 03:12:25;;;;;;;3.70;2.78;;;;;;;6.95;100.00;94061.38;5077871;28;20103;-62
2023/11/02 03:14:54;;;;;;;5.90;3.08;;;;;;;7.03;100.00;94060.56;5082063;28;20024;-62
2023/11/02 03:17:35;;;;;;;3.13;2.92;;;;;;;6.96;100.00;94044.69;5090838;28;20027;-62
2023/11/02 03:20:01;;;;;;;3.40;3.20;;;;;;;6.99;100.00;94038.34;5075258;28;20035;-62
2023/11/02 03:22:26;;;;;;;3.67;3.30;;;;;;;6.91;100.00;94012.97;5089224;28;20025;-62
2023/11/02 03:25:30;;;;;;;5.22;3.10;;;;;;;6.93;100.00;94012.78;5082046;28;20035;-62
2023/11/02 03:28:04;;;;;;;3.55;3.10;;;;;;;6.88;100.00;94008.06;5081065;28;20020;-63
2023/11/02 03:30:44;;;;;;;4.53;2.90;;;;;;;6.91;100.00;93997.28;5084238;28;20023;-62
2023/11/02 03:33:21;;;;;;;3.08;2.83;;;;;;;7.01;100.00;94003.16;5079913;28;20024;-62
2023/11/02 03:36:01;;;;;;;3.78;3.20;;;;;;;6.95;100.00;94006.44;5084089;28;20073;-62
2023/11/02 03:38:57;;;;;;;3.30;3.10;;;;;;;6.84;100.00;94009.34;5074642;28;20036;-62
2023/11/02 03:41:24;;;;;;;4.93;2.67;;;;;;;6.75;100.00;93974.53;5081909;28;20401;-62
2023/11/02 03:44:02;;;;;;;4.60;2.92;;;;;;;6.80;100.00;93950.47;5083384;28;20074;-62
2023/11/02 03:46:40;;;;;;;3.38;3.17;;;;;;;6.91;100.00;93947.56;5078949;28;20046;-62
2023/11/02 03:49:26;;;;;;;3.58;3.28;;;;;;;6.83;100.00;93939.69;5080719;28;20341;-62
2023/11/02 03:52:11;;;;;;;3.20;2.90;;;;;;;6.80;100.00;93976.63;5074862;28;20052;-62
2023/11/02 03:54:55;;;;;;;4.30;3.15;;;;;;;6.77;100.00;93963.88;5088515;28;20016;-63
2023/11/02 03:57:30;;;;;;;5.18;3.00;;;;;;;6.88;100.00;93953.94;5075195;28;20029;-62
2023/11/02 04:00:15;;;;;;;3.22;2.92;;;;;;;6.92;100.00;93956.22;5077215;28;20531;-62
2023/11/02 04:02:56;;;;;;;4.32;3.00;;;;;;;6.79;100.00;93951.47;5077178;28;20074;-62
2023/11/02 04:05:27;;;;;;;3.20;3.00;;;;;;;6.74;100.00;93934.47;5075205;28;20060;-62
2023/11/02 04:08:19;;;;;;;4.05;3.33;;;;;;;6.86;100.00;93918.47;5079841;28;20070;-62
2023/11/02 04:11:13;;;;;;;3.90;3.05;;;;;;;6.76;100.00;93894.25;5077178;28;20071;-62
2023/11/02 04:14:02;;;;;;;22.23;15.45;;;;;;;6.77;100.00;93854.84;5079181;28;20754;-62
2023/11/02 04:16:28;;;;;;;4.57;3.30;;;;;;;6.76;100.00;93870.69;5087093;28;20361;-62
2023/11/02 04:18:53;;;;;;;3.28;2.90;;;;;;;6.82;100.00;93883.13;5080739;28;20065;-63
2023/11/02 04:21:19;;;;;;;3.50;3.30;;;;;;;6.77;100.00;93895.88;5083278;28;20031;-62
2023/11/02 04:23:44;;;;;;;6.70;3.17;;;;;;;6.76;100.00;93902.09;5081260;28;20020;-62
2023/11/02 04:26:09;;;;;;;5.03;3.30;;;;;;;6.78;100.00;93890.50;5086657;28;20575;-62
2023/11/02 04:28:35;;;;;;;15.15;13.52;;;;;;;6.80;100.00;93877.25;5088365;28;20027;-62
2023/11/02 04:31:01;;;;;;;19.30;17.30;;;;;;;6.81;100.00;93858.78;5085705;28;20026;-62
2023/11/02 04:33:26;;;;;;;4.32;4.00;;;;;;;6.83;100.00;93869.91;5086283;28;20063;-62
2023/11/02 04:35:51;;;;;;;9.88;8.32;;;;;;;6.86;100.00;93851.25;5083389;28;20015;-62
2023/11/02 04:38:17;;;;;;;5.97;5.38;;;;;;;6.86;100.00;93847.84;5077820;28;20024;-62
2023/11/02 04:40:42;;;;;;;4.38;3.97;;;;;;;6.82;100.00;93857.78;5083628;28;20024;-62
2023/11/02 04:43:08;;;;;;;5.70;3.67;;;;;;;6.85;100.00;93846.16;5088515;28;20059;-62
2023/11/02 04:45:34;;;;;;;37.35;28.17;;;;;;;6.85;100.00;93841.78;5078693;28;20025;-62
2023/11/02 04:47:59;;;;;;;6.03;5.40;;;;;;;6.86;100.00;93821.69;5083471;28;20045;-62
2023/11/02 04:50:25;;;;;;;4.00;3.03;;;;;;;6.90;100.00;93827.38;5090015;28;20106;-62
2023/11/02 04:52:52;;;;;;;3.33;2.72;;;;;;;6.91;100.00;93826.38;5078529;28;20023;-62
2023/11/02 04:55:17;;;;;;;3.15;2.95;;;;;;;6.87;100.00;93824.09;5090117;28;20077;-62
2023/11/02 04:57:43;;;;;;;7.50;6.70;;;;;;;6.95;100.00;93815.44;5081461;28;20032;-62
2023/11/02 05:00:09;;;;;;;5.40;5.00;;;;;;;7.07;100.00;93802.00;5089900;28;20164;-62
2023/11/02 05:02:35;;;;;;;4.60;4.20;;;;;;;7.07;100.00;93786.28;5091780;28;20024;-62
2023/11/02 05:05:00;;;;;;;4.95;4.22;;;;;;;6.97;100.00;93797.78;5091247;28;20024;-62
2023/11/02 05:07:26;;;;;;;5.45;3.60;;;;;;;7.03;100.00;93799.72;5078250;28;20013;-62
2023/11/02 05:09:51;;;;;;;5.25;3.03;;;;;;;7.08;100.00;93795.81;5089782;28;20047;-62
2023/11/02 05:12:17;;;;;;;4.90;3.10;;;;;;;7.07;100.00;93784.50;5080995;28;20392;-62
2023/11/02 05:14:43;;;;;;;4.43;3.30;;;;;;;7.05;100.00;93802.19;5090442;28;20020;-62
2023/11/02 05:17:09;;;;;;;21.42;17.38;;;;;;;7.14;100.00;93792.50;5090300;28;20020;-62
2023/11/02 05:19:34;;;;;;;5.90;4.05;;;;;;;7.33;100.00;93778.22;5080957;28;20028;-63
2023/11/02 05:22:00;;;;;;;3.85;3.40;;;;;;;7.31;100.00;93772.34;5083161;28;20393;-62
2023/11/02 05:24:25;;;;;;;3.25;2.97;;;;;;;7.34;100.00;93750.25;5081763;28;20111;-62
2023/11/02 05:26:51;;;;;;;3.10;2.90;;;;;;;7.21;100.00;93722.00;5087281;28;20024;-62
2023/11/02 05:29:16;;;;;;;7.00;5.07;;;;;;;7.43;100.00;93708.16;5077697;28;20084;-62
2023/11/02 05:31:42;;;;;;;3.10;2.90;;;;;;;7.28;100.00;93720.31;5077888;28;20074;-62
2023/11/02 05:34:07;;;;;;;8.52;7.82;;;;;;;7.23;100.00;93712.16;5078253;28;20033;-63
2023/11/02 05:36:32;;;;;;;9.40;6.65;;;;;;;7.18;100.00;93704.81;5092418;28;20106;-63
2023/11/02 05:38:59;;;;;;;4.05;3.30;;;;;;;7.24;100.00;93705.94;5081134;28;20021;-63
2023/11/02 05:41:24;;;;;;;7.90;4.68;;;;;;;7.11;100.00;93709.91;5090998;28;20476;-63
2023/11/02 05:43:50;;;;;;;3.00;2.80;;;;;;;7.19;100.00;93710.88;5077144;28;20016;-62
2023/11/02 05:46:15;;;;;;;3.92;3.63;;;;;;;7.16;100.00;93704.97;5090045;28;20069;-62
2023/11/02 05:48:40;;;;;;;7.20;5.72;;;;;;;7.11;100.00;93702.06;5086597;28;20396;-63
2023/11/02 05:51:06;;;;;;;3.40;3.20;;;;;;;7.19;100.00;93690.75;5090246;28;20103;-62
2023/11/02 05:53:31;;;;;;;2.90;2.65;;;;;;;7.20;100.00;93699.44;5078128;28;20028;-62
2023/11/02 05:55:57;;;;;;;3.00;2.70;;;;;;;7.21;100.00;93701.06;5077942;28;20648;-62
2023/11/02 05:58:22;;;;;;;3.28;2.97;;;;;;;7.19;100.00;93713.50;5084045;28;20024;-62
2023/11/02 06:00:48;;;;;;;5.53;3.10;;;;;;;7.19;100.00;93718.72;5090583;28;20024;-62
2023/11/02 06:03:13;;;;;;;4.57;2.80;;;;;;;7.27;100.00;93718.69;5084584;28;20480;-62
2023/11/02 06:05:39;;;;;;;15.40;13.35;;;;;;;7.27;100.00;93706.41;5090264;28;20362;-62
2023/11/02 06:08:04;;;;;;;4.85;4.25;;;;;;;7.29;100.00;93706.25;5086955;28;20087;-63
2023/11/02 06:10:29;;;;;;;6.07;3.28;;;;;;;7.30;100.00;93694.78;5064173;28;20075;-62
2023/11/02 06:12:55;;;;;;;5.32;3.33;;;;;;;7.32;100.00;93698.06;5085351;28;20089;-62
2023/11/02 06:15:20;;;;;;;3.53;3.17;;;;;;;7.27;100.00;93688.09;5093389;28;20016;-62
2023/11/02 06:17:46;;;;;;;5.97;4.60;;;;;;;7.24;100.00;93675.34;5085055;28;20148;-62
2023/11/02 06:20:11;;;;;;;4.63;4.22;;;;;;;7.24;100.00;93664.06;5077144;28;20020;-63
2023/11/02 06:22:36;;;;;;;3.75;3.42;;;;;;;7.32;100.00;93669.25;5085125;28;20441;-63
2023/11/02 06:25:02;;;;;;;3.33;3.00;;;;;;;7.41;100.00;93659.56;5077737;28;20098;-63
2023/11/02 06:27:28;;;;;;;2.97;2.58;;;;;;;7.55;100.00;93669.31;5085587;28;20020;-62
2023/11/02 06:29:54;;;;;;;2.85;2.45;;;;;;;7.59;100.00;93688.91;5079612;28;20025;-62
2023/11/02 06:32:20;;;;;;;3.45;2.80;;;;;;;7.62;100.00;93692.97;5075784;28;20021;-62
2023/11/02 06:34:45;;;;;;;3.92;3.03;;;;;;;7.53;100.00;93678.31;5077839;28;20023;-62
2023/11/02 06:37:13;;;;;;;8.85;6.80;;;;;;;7.45;100.00;93668.69;5088210;28;20032;-62
2023/11/02 06:39:38;;;;;;;4.50;3.95;;;;;;;7.41;100.00;93649.91;5077356;28;20028;-62
2023/11/02 06:42:05;;;;;;;5.05;2.80;;;;;;;7.39;100.00;93682.47;5078191;28;20401;-62
2023/11/02 06:44:30;;;;;;;3.67;3.38;;;;;;;7.37;100.00;93672.16;5084551;28;20027;-62
2023/11/02 06:46:56;;;;;;;50.17;43.65;;;;;;;7.38;100.00;93652.06;5077755;28;20009;-62
2023/11/02 06:49:21;;;;;;;13.73;12.35;;;;;;;7.41;100.00;93639.44;5079373;28;20024;-62
2023/11/02 06:51:47;;;;;;;9.32;8.43;;;;;;;7.40;100.00;93637.78;5078277;28;20024;-62
2023/11/02 06:54:13;;;;;;;5.32;4.93;;;;;;;7.41;100.00;93636.00;5074719;28;20021;-62
2023/11/02 06:56:39;;;;;;;6.90;6.30;;;;;;;7.49;100.00;93630.69;5080388;28;20034;-62
2023/11/02 06:59:05;;;;;;;9.60;8.38;;;;;;;7.55;100.00;93626.56;5079529;28;20508;-62
2023/11/02 07:01:30;;;;;;;12.68;11.48;;;;;;;7.54;100.00;93641.50;5088020;28;20063;-62
2023/11/02 07:03:55;;;;;;;6.88;6.18;;;;;;;7.57;100.00;93619.34;5078374;28;20023;-62
2023/11/02 07:06:21;;;;;;;8.57;7.75;;;;;;;7.54;100.00;93614.47;5074969;28;20024;-62
2023/11/02 07:08:46;;;;;;;8.35;6.22;;;;;;;7.60;100.00;93611.16;5074518;28;20420;-62
2023/11/02 07:11:12;;;;;;;6.57;6.00;;;;;;;7.57;100.00;93598.41;5086468;28;20287;-62
2023/11/02 07:13:37;;;;;;;5.88;5.30;;;;;;;7.57;100.00;93593.16;5086526;28;20111;-63
2023/11/02 07:16:03;;;;;;;4.35;4.00;;;;;;;7.63;100.00;93579.41;5081865;28;20028;-62
2023/11/02 07:18:29;;;;;;;4.78;4.25;;;;;;;7.62;100.00;93582.19;5087650;28;20043;-63
2023/11/02 07:20:54;;;;;;;6.47;4.78;;;;;;;7.62;100.00;93587.41;5080837;28;20028;-63
2023/11/02 07:23:20;;;;;;;3.85;3.55;;;;;;;7.80;100.00;93574.00;5083703;28;20031;-63
2023/11/02 07:25:46;;;;;;;4.38;3.97;;;;;;;7.74;100.00;93559.84;5082177;28;20408;-62
2023/11/02 07:28:11;;;;;;;6.15;5.63;;;;;;;7.69;100.00;93557.72;5088701;28;20028;-62
2023/11/02 07:30:37;;;;;;;6.97;5.07;;;;;;;7.71;100.00;93560.16;5075094;28;20035;-62
2023/11/02 07:33:03;;;;;;;9.18;8.38;;;;;;;7.76;100.00;93562.25;5073924;28;20024;-62
2023/11/02 07:35:29;;;;;;;6.43;5.82;;;;;;;7.82;100.00;93570.22;5074614;28;20055;-62
2023/11/02 07:37:54;;;;;;;8.82;7.93;;;;;;;7.81;100.00;93576.47;5076130;28;20036;-62
2023/11/02 07:40:19;;;;;;;16.42;15.10;;;;;;;7.76;100.00;93577.97;5092666;28;20020;-62
2023/11/02 07:42:45;;;;;;;6.60;5.95;;;;;;;8.00;100.00;93585.63;5076682;28;20025;-62
2023/11/02 07:45:11;;;;;;;6.07;4.97;;;;;;;8.00;100.00;93575.13;5087583;28;20027;-62
2023/11/02 07:47:36;;;;;;;7.93;5.57;;;;;;;7.95;100.00;93582.72;5086426;28;20024;-62
2023/11/02 07:50:03;;;;;;;5.40;4.90;;;;;;;7.94;100.00;93583.72;5088926;28;20024;-62
2023/11/02 07:52:29;;;;;;;5.68;5.28;;;;;;;7.88;100.00;93597.53;5081389;28;20130;-62
2023/11/02 07:54:57;;;;;;;5.40;5.00;;;;;;;7.84;100.00;93598.84;5082977;28;20498;-62
2023/11/02 07:57:24;;;;;;;13.00;11.75;;;;;;;7.83;100.00;93621.63;5087279;28;20110;-62
2023/11/02 07:59:53;;;;;;;5.18;4.68;;;;;;;7.88;100.00;93642.88;5078711;28;20020;-62
2023/11/02 08:02:18;;;;;;;4.50;4.10;;;;;;;8.05;100.00;93660.25;5081595;28;20028;-62
2023/11/02 08:04:44;;;;;;;4.38;3.97;;;;;;;7.96;100.00;93681.31;5084653;28;20396;-62
2023/11/02 08:07:09;;;;;;;7.18;6.55;;;;;;;7.98;100.00;93686.38;5079673;28;20027;-62
2023/11/02 08:09:36;;;;;;;5.32;4.78;;;;;;;7.96;100.00;93704.88;5075157;28;20041;-63
2023/11/02 08:12:02;;;;;;;6.95;5.20;;;;;;;8.10;100.00;93723.47;5083505;28;20026;-63
2023/11/02 08:14:28;;;;;;;5.18;4.20;;;;;;;8.20;100.00;93725.88;5083912;28;20690;-62
2023/11/02 08:16:53;;;;;;;6.20;4.32;;;;;;;8.20;100.00;93721.41;5083848;28;20024;-63
2023/11/02 08:19:18;;;;;;;7.35;3.88;;;;;;;8.28;100.00;93731.84;5074533;28;20454;-63
2023/11/02 08:21:44;;;;;;;6.18;4.57;;;;;;;8.19;100.00;93732.91;5091208;28;20401;-63
2023/11/02 08:24:10;;;;;;;6.63;5.00;;;;;;;8.13;100.00;93738.84;5076593;28;20201;-64
2023/11/02 08:26:38;;;;;;;9.48;3.47;;;;;;;8.08;100.00;93743.81;5080929;28;20013;-63
2023/11/02 08:29:04;;;;;;;3.97;3.28;;;;;;;8.04;100.00;93764.28;5085295;28;20373;-64
2023/11/02 08:31:31;;;;;;;5.43;3.50;;;;;;;8.03;100.00;93778.38;5091448;28;20031;-64
2023/11/02 08:33:56;;;;;;;5.85;4.35;;;;;;;7.97;100.00;93777.25;5085501;28;20028;-64
2023/11/02 08:36:25;;;;;;;6.40;4.70;;;;;;;7.94;100.00;93790.72;5084153;28;20084;-64
2023/11/02 08:38:50;;;;;;;4.30;3.50;;;;;;;8.02;100.00;93814.25;5084131;28;20012;-64
2023/11/02 08:41:20;;;;;;;6.97;3.60;;;;;;;8.15;100.00;93812.88;5080924;28;20028;-64
2023/11/02 08:43:47;;;;;;;2.75;2.10;;;;;;;8.52;100.00;93815.78;5077274;28;20024;-63
2023/11/02 08:46:16;;;;;;;3.33;2.30;;;;;;;8.73;100.00;93820.34;5086814;28;20020;-63
2023/11/02 08:48:46;;;;;;;2.55;1.73;;;;;;;8.85;100.00;93808.47;5079067;28;20017;-63
2023/11/02 08:51:14;;;;;;;1.90;1.80;;;;;;;8.84;100.00;93825.19;5074184;28;20489;-64
2023/11/02 08:53:40;;;;;;;1.88;1.77;;;;;;;8.88;100.00;93834.34;5079570;28;20388;-63
2023/11/02 08:56:09;;;;;;;2.15;1.80;;;;;;;8.79;100.00;93848.53;5089080;28;20107;-63
2023/11/02 08:58:52;;;;;;;2.15;1.90;;;;;;;8.73;100.00;93872.81;5087951;28;20024;-63
2023/11/02 09:01:20;;;;;;;3.55;2.60;;;;;;;8.64;100.00;93869.47;5087701;28;20025;-64
2023/11/02 09:03:45;;;;;;;2.00;1.70;;;;;;;8.59;100.00;93884.91;5082433;28;20032;-63
2023/11/02 09:06:11;;;;;;;3.45;1.50;;;;;;;8.60;100.00;93900.47;5085500;28;20473;-63
2023/11/02 09:08:37;;;;;;;3.40;1.75;;;;;;;8.63;100.00;93909.81;5075632;28;20016;-63
2023/11/02 09:11:04;;;;;;;1.35;1.20;;;;;;;8.57;100.00;93906.06;5083777;28;20091;-63
2023/11/02 09:13:32;;;;;;;1.90;1.58;;;;;;;8.53;100.00;93914.44;5074326;28;20495;-64
2023/11/02 09:15:58;;;;;;;1.13;1.02;;;;;;;8.48;100.00;93935.91;5075739;28;20032;-63
2023/11/02 09:18:25;;;;;;;1.10;1.10;;;;;;;8.57;100.00;93952.44;5074379;28;20366;-63
2023/11/02 09:20:50;;;;;;;1.30;1.30;;;;;;;8.45;100.00;93960.69;5078553;28;20097;-63
2023/11/02 09:23:16;;;;;;;3.13;1.30;;;;;;;8.37;100.00;93962.53;5074364;28;20029;-63
2023/11/02 09:25:43;;;;;;;1.90;0.90;;;;;;;8.45;100.00;93958.06;5073244;28;20032;-63
2023/11/02 09:28:09;;;;;;;2.38;1.23;;;;;;;8.43;100.00;93965.28;5076207;28;20070;-63
2023/11/02 09:30:34;;;;;;;1.30;1.30;;;;;;;8.47;100.00;93963.13;5083239;28;20021;-64
2023/11/02 09:33:00;;;;;;;1.70;1.60;;;;;;;8.53;100.00;93962.50;5076745;28;20396;-63
2023/11/02 09:35:25;;;;;;;2.25;2.10;;;;;;;8.55;100.00;93960.50;5079588;28;20016;-63
2023/11/02 09:37:51;;;;;;;4.50;4.20;;;;;;;8.42;100.00;93954.97;5079826;28;20089;-63
2023/11/02 09:40:17;;;;;;;1.25;1.25;;;;;;;8.30;100.00;93949.28;5086394;28;20493;-63
2023/11/02 09:42:44;;;;;;;1.30;1.20;;;;;;;8.27;100.00;93960.13;5079003;28;20055;-64
2023/11/02 09:45:10;;;;;;;1.70;1.60;;;;;;;8.29;100.00;93972.06;5077445;28;20345;-63
2023/11/02 09:47:35;;;;;;;1.27;1.27;;;;;;;8.13;100.00;93983.41;5076392;28;20101;-63
2023/11/02 09:50:01;;;;;;;1.13;1.13;;;;;;;8.05;100.00;93993.09;5083489;28;20031;-63
2023/11/02 09:52:27;;;;;;;3.83;3.40;;;;;;;8.13;100.00;94014.06;5077974;28;20024;-63
2023/11/02 09:54:53;;;;;;;4.00;2.00;;;;;;;8.00;100.00;94019.84;5082655;28;20473;-64
2023/11/02 09:57:18;;;;;;;1.98;1.30;;;;;;;7.89;100.00;94018.38;5084976;28;20093;-63
2023/11/02 09:59:46;;;;;;;1.30;1.25;;;;;;;7.80;100.00;94014.94;5083251;28;20550;-63
2023/11/02 10:02:12;;;;;;;1.40;1.33;;;;;;;7.75;100.00;94022.50;5077697;28;20032;-63
2023/11/02 10:04:38;;;;;;;3.20;2.90;;;;;;;7.60;100.00;94027.56;5085821;28;20111;-64
2023/11/02 10:07:05;;;;;;;6.30;3.15;;;;;;;7.51;100.00;94042.44;5092196;28;20073;-62
2023/11/02 10:09:31;;;;;;;2.33;2.17;;;;;;;7.42;100.00;94039.03;5076568;28;20452;-63
2023/11/02 10:11:56;;;;;;;2.13;2.03;;;;;;;7.35;100.00;94051.13;5079272;28;20020;-62
2023/11/02 10:14:22;;;;;;;3.83;3.53;;;;;;;7.34;100.00;94057.34;5075943;28;20016;-63
2023/11/02 10:16:48;;;;;;;2.70;2.50;;;;;;;7.33;100.00;94079.28;5085915;28;20488;-63
2023/11/02 10:19:13;;;;;;;4.95;3.45;;;;;;;7.33;100.00;94076.66;5086156;28;20380;-63
2023/11/02 10:21:39;;;;;;;4.07;3.67;;;;;;;7.29;100.00;94080.56;5092366;28;20016;-62
2023/11/02 10:24:05;;;;;;;2.00;1.90;;;;;;;7.21;100.00;94088.44;5079627;28;20119;-63
2023/11/02 10:26:34;;;;;;;1.80;1.70;;;;;;;7.17;100.00;94090.53;5081058;28;20512;-63
2023/11/02 10:29:02;;;;;;;1.65;1.48;;;;;;;7.07;100.00;94080.22;5079166;28;20024;-63
2023/11/02 10:31:30;;;;;;;1.70;1.60;;;;;;;7.01;100.00;94059.91;5085110;28;20032;-63
2023/11/02 10:33:58;;;;;;;31.83;28.77;;;;;;;7.00;100.00;94034.75;5082830;28;20021;-64
2023/11/02 10:36:25;;;;;;;9.50;8.63;;;;;;;6.99;100.00;94001.69;5085368;28;20020;-63
2023/11/02 10:38:51;;;;;;;12.40;6.15;;;;;;;6.88;100.00;93979.28;5082041;28;20499;-63
2023/11/02 10:41:18;;;;;;;12.27;7.70;;;;;;;6.96;100.00;93955.72;5077061;28;20024;-63
2023/11/02 10:43:48;;;;;;;17.55;11.70;;;;;;;6.81;100.00;93925.97;5075183;28;20035;-63
2023/11/02 10:46:15;;;;;;;7.70;6.75;;;;;;;6.84;100.00;93907.31;5093494;28;20088;-63
2023/11/02 10:48:41;;;;;;;1.88;1.73;;;;;;;6.79;100.00;93863.34;5078002;28;20039;-63
2023/11/02 10:51:14;;;;;;;5.53;5.03;;;;;;;6.66;100.00;93802.88;5084218;28;20020;-63
2023/11/02 10:53:54;;;;;;;11.15;10.05;;;;;;;6.58;100.00;93783.59;5082933;28;20029;-63
2023/11/02 10:56:22;;;;;;;7.68;6.93;;;;;;;6.58;100.00;93778.38;5082815;28;20024;-63
2023/11/02 10:58:51;;;;;;;1.55;1.50;;;;;;;6.54;100.00;93784.91;5077341;28;20021;-63
2023/11/02 11:01:19;;;;;;;1.00;1.00;;;;;;;6.56;100.00;93803.88;5083767;28;20032;-63
2023/11/02 11:03:46;;;;;;;2.05;1.95;;;;;;;6.65;100.00;93796.00;5083145;28;20504;-64
2023/11/02 11:06:12;;;;;;;2.50;2.40;;;;;;;6.63;100.00;93792.75;5081616;28;20021;-63
2023/11/02 11:08:39;;;;;;;4.05;2.83;;;;;;;6.57;100.00;93783.75;5088057;28;20051;-63
2023/11/02 11:11:06;;;;;;;3.35;3.05;;;;;;;6.56;100.00;93790.78;5078317;28;20039;-64
2023/11/02 11:13:31;;;;;;;5.28;4.88;;;;;;;6.58;100.00;93788.81;5076078;28;20047;-63
2023/11/02 11:15:57;;;;;;;5.65;5.15;;;;;;;6.63;100.00;93771.81;5084432;28;20019;-64
2023/11/02 11:18:24;;;;;;;5.30;4.80;;;;;;;6.66;100.00;93750.56;5087696;28;20110;-63
2023/11/02 11:20:50;;;;;;;4.28;3.20;;;;;;;6.69;100.00;93735.38;5077053;28;20099;-63
2023/11/02 11:23:16;;;;;;;3.00;2.80;;;;;;;6.79;100.00;93731.75;5086212;28;20062;-63
2023/11/02 11:26:02;;;;;;;8.02;5.95;;;;;;;6.79;100.00;93750.88;5084114;28;20071;-64
2023/11/02 11:28:35;;;;;;;5.80;5.20;;;;;;;6.57;100.00;93760.22;5082419;28;20016;-63
2023/11/02 11:31:02;;;;;;;6.53;5.90;;;;;;;6.42;100.00;93737.38;5091438;28;20025;-63
2023/11/02 11:33:47;;;;;;;3.30;3.00;;;;;;;6.34;100.00;93718.25;5079488;28;20024;-64
2023/11/02 11:36:24;;;;;;;16.75;9.25;;;;;;;6.27;100.00;93711.06;5082714;28;20032;-64
2023/11/02 11:38:50;;;;;;;1.92;1.83;;;;;;;6.26;100.00;93691.13;5079171;28;20102;-63
2023/11/02 11:41:45;;;;;;;2.20;2.10;;;;;;;6.32;100.00;93675.78;5099209;28;20035;-63
2023/11/02 11:44:20;;;;;;;6.15;5.32;;;;;;;6.19;100.00;93661.44;5084008;28;20498;-64